sensor_id;sensor_type;location;lat;lon;timestamp;P1;durP1;ratioP1;P2;durP2;ratioP2
3647;SDS011;1840;48.892;15.312;2023-04-24T00:01:10;14.60;;;6.17;;
3647;SDS011;1840;48.892;15.312;2023-04-24T00:03:39;11.67;;;7.50;;
3647;SDS011;1840;48.892;15.312;2023-04-24T00:06:07;42.17;;;9.43;;
3647;SDS011;1840;48.892;15.312;2023-04-24T00:08:37;79.27;;;12.23;;
3647;SDS011;1840;48.892;15.312;2023-04-24T00:11:05;98.20;;;12.17;;
3647;SDS011;1840;48.892;15.312;2023-04-24T00:13:33;30.33;;;7.27;;
3647;SDS011;1840;48.892;15.312;2023-04-24T00:16:01;23.37;;;5.70;;
3647;SDS011;1840;48.892;15.312;2023-04-24T00:18:29;9.23;;;5.17;;
3647;SDS011;1840;48.892;15.312;2023-04-24T00:20:57;181.67;;;9.60;;
3647;SDS011;1840;48.892;15.312;2023-04-24T00:23:25;53.97;;;7.17;;
3647;SDS011;1840;48.892;15.312;2023-04-24T00:25:54;70.27;;;7.50;;
3647;SDS011;1840;48.892;15.312;2023-04-24T00:28:23;71.77;;;7.70;;
3647;SDS011;1840;48.892;15.312;2023-04-24T00:30:50;81.40;;;8.70;;
3647;SDS011;1840;48.892;15.312;2023-04-24T00:33:18;87.10;;;7.90;;
3647;SDS011;1840;48.892;15.312;2023-04-24T00:35:46;86.27;;;9.43;;
3647;SDS011;1840;48.892;15.312;2023-04-24T00:38:14;35.10;;;6.90;;
3647;SDS011;1840;48.892;15.312;2023-04-24T00:40:42;79.20;;;9.43;;
3647;SDS011;1840;48.892;15.312;2023-04-24T00:43:12;67.17;;;8.73;;
3647;SDS011;1840;48.892;15.312;2023-04-24T00:45:40;89.80;;;10.50;;
3647;SDS011;1840;48.892;15.312;2023-04-24T00:48:08;124.83;;;10.83;;
3647;SDS011;1840;48.892;15.312;2023-04-24T00:50:38;92.23;;;11.57;;
3647;SDS011;1840;48.892;15.312;2023-04-24T00:53:06;77.20;;;12.77;;
3647;SDS011;1840;48.892;15.312;2023-04-24T00:55:34;48.77;;;9.63;;
3647;SDS011;1840;48.892;15.312;2023-04-24T00:58:04;31.13;;;9.77;;
3647;SDS011;1840;48.892;15.312;2023-04-24T01:00:34;57.10;;;10.20;;
3647;SDS011;1840;48.892;15.312;2023-04-24T01:03:03;17.93;;;9.47;;
3647;SDS011;1840;48.892;15.312;2023-04-24T01:05:32;17.13;;;10.40;;
3647;SDS011;1840;48.892;15.312;2023-04-24T01:08:00;17.70;;;11.33;;
3647;SDS011;1840;48.892;15.312;2023-04-24T01:10:30;24.90;;;10.27;;
3647;SDS011;1840;48.892;15.312;2023-04-24T01:13:00;10.33;;;8.20;;
3647;SDS011;1840;48.892;15.312;2023-04-24T01:15:28;25.67;;;10.40;;
3647;SDS011;1840;48.892;15.312;2023-04-24T01:17:57;109.13;;;16.33;;
3647;SDS011;1840;48.892;15.312;2023-04-24T01:20:25;137.83;;;16.00;;
3647;SDS011;1840;48.892;15.312;2023-04-24T01:22:56;90.83;;;12.07;;
3647;SDS011;1840;48.892;15.312;2023-04-24T01:25:24;30.13;;;10.70;;
3647;SDS011;1840;48.892;15.312;2023-04-24T01:27:54;14.27;;;8.47;;
3647;SDS011;1840;48.892;15.312;2023-04-24T01:30:22;13.30;;;8.57;;
3647;SDS011;1840;48.892;15.312;2023-04-24T01:32:50;12.90;;;9.73;;
3647;SDS011;1840;48.892;15.312;2023-04-24T01:35:18;11.40;;;8.77;;
3647;SDS011;1840;48.892;15.312;2023-04-24T01:37:47;13.83;;;9.37;;
3647;SDS011;1840;48.892;15.312;2023-04-24T01:40:16;16.33;;;9.00;;
3647;SDS011;1840;48.892;15.312;2023-04-24T01:42:44;11.67;;;8.47;;
3647;SDS011;1840;48.892;15.312;2023-04-24T01:45:13;14.17;;;9.20;;
3647;SDS011;1840;48.892;15.312;2023-04-24T01:47:41;14.97;;;9.33;;
3647;SDS011;1840;48.892;15.312;2023-04-24T01:50:09;10.23;;;8.40;;
3647;SDS011;1840;48.892;15.312;2023-04-24T01:52:38;11.47;;;8.90;;
3647;SDS011;1840;48.892;15.312;2023-04-24T01:55:06;15.43;;;9.70;;
3647;SDS011;1840;48.892;15.312;2023-04-24T01:57:37;17.87;;;10.07;;
3647;SDS011;1840;48.892;15.312;2023-04-24T02:00:06;34.70;;;13.87;;
3647;SDS011;1840;48.892;15.312;2023-04-24T02:02:34;14.77;;;11.23;;
3647;SDS011;1840;48.892;15.312;2023-04-24T02:05:05;15.67;;;11.23;;
3647;SDS011;1840;48.892;15.312;2023-04-24T02:07:33;18.00;;;11.90;;
3647;SDS011;1840;48.892;15.312;2023-04-24T02:10:01;18.57;;;11.63;;
3647;SDS011;1840;48.892;15.312;2023-04-24T02:12:30;47.80;;;14.30;;
3647;SDS011;1840;48.892;15.312;2023-04-24T02:14:59;174.70;;;61.90;;
3647;SDS011;1840;48.892;15.312;2023-04-24T02:17:28;136.03;;;17.87;;
3647;SDS011;1840;48.892;15.312;2023-04-24T02:19:57;199.07;;;20.73;;
3647;SDS011;1840;48.892;15.312;2023-04-24T02:22:25;278.37;;;22.37;;
3647;SDS011;1840;48.892;15.312;2023-04-24T02:24:53;158.37;;;17.20;;
3647;SDS011;1840;48.892;15.312;2023-04-24T02:27:21;172.97;;;19.57;;
3647;SDS011;1840;48.892;15.312;2023-04-24T02:29:49;73.57;;;18.73;;
3647;SDS011;1840;48.892;15.312;2023-04-24T02:32:18;54.03;;;18.33;;
3647;SDS011;1840;48.892;15.312;2023-04-24T02:34:46;140.40;;;20.83;;
3647;SDS011;1840;48.892;15.312;2023-04-24T02:37:14;20.60;;;14.13;;
3647;SDS011;1840;48.892;15.312;2023-04-24T02:39:42;56.43;;;17.67;;
3647;SDS011;1840;48.892;15.312;2023-04-24T02:42:10;63.23;;;19.03;;
3647;SDS011;1840;48.892;15.312;2023-04-24T02:44:38;43.07;;;16.63;;
3647;SDS011;1840;48.892;15.312;2023-04-24T02:47:07;89.40;;;19.10;;
3647;SDS011;1840;48.892;15.312;2023-04-24T02:49:36;76.13;;;18.20;;
3647;SDS011;1840;48.892;15.312;2023-04-24T02:52:05;28.40;;;17.57;;
3647;SDS011;1840;48.892;15.312;2023-04-24T02:54:33;27.10;;;16.77;;
3647;SDS011;1840;48.892;15.312;2023-04-24T02:57:01;24.43;;;17.13;;
3647;SDS011;1840;48.892;15.312;2023-04-24T02:59:29;24.33;;;16.53;;
3647;SDS011;1840;48.892;15.312;2023-04-24T03:01:58;24.20;;;15.07;;
3647;SDS011;1840;48.892;15.312;2023-04-24T03:04:26;24.23;;;16.57;;
3647;SDS011;1840;48.892;15.312;2023-04-24T03:06:56;18.07;;;13.10;;
3647;SDS011;1840;48.892;15.312;2023-04-24T03:09:24;20.80;;;13.60;;
3647;SDS011;1840;48.892;15.312;2023-04-24T03:11:51;25.00;;;15.13;;
3647;SDS011;1840;48.892;15.312;2023-04-24T03:14:20;22.43;;;15.40;;
3647;SDS011;1840;48.892;15.312;2023-04-24T03:16:48;27.50;;;18.10;;
3647;SDS011;1840;48.892;15.312;2023-04-24T03:19:16;26.03;;;17.17;;
3647;SDS011;1840;48.892;15.312;2023-04-24T03:21:44;22.33;;;15.87;;
3647;SDS011;1840;48.892;15.312;2023-04-24T03:24:13;26.60;;;16.80;;
3647;SDS011;1840;48.892;15.312;2023-04-24T03:26:41;29.47;;;18.50;;
3647;SDS011;1840;48.892;15.312;2023-04-24T03:29:09;22.43;;;16.07;;
3647;SDS011;1840;48.892;15.312;2023-04-24T03:31:37;21.40;;;16.00;;
3647;SDS011;1840;48.892;15.312;2023-04-24T03:34:06;27.60;;;17.70;;
3647;SDS011;1840;48.892;15.312;2023-04-24T03:36:34;29.20;;;18.50;;
3647;SDS011;1840;48.892;15.312;2023-04-24T03:39:02;24.23;;;18.07;;
3647;SDS011;1840;48.892;15.312;2023-04-24T03:41:32;30.73;;;19.70;;
3647;SDS011;1840;48.892;15.312;2023-04-24T03:43:59;34.40;;;20.00;;
3647;SDS011;1840;48.892;15.312;2023-04-24T03:46:28;34.70;;;18.70;;
3647;SDS011;1840;48.892;15.312;2023-04-24T03:48:56;31.17;;;20.43;;
3647;SDS011;1840;48.892;15.312;2023-04-24T03:51:24;33.10;;;20.73;;
3647;SDS011;1840;48.892;15.312;2023-04-24T03:53:54;28.10;;;18.50;;
3647;SDS011;1840;48.892;15.312;2023-04-24T03:56:21;28.13;;;17.13;;
3647;SDS011;1840;48.892;15.312;2023-04-24T03:58:51;33.40;;;21.27;;
3647;SDS011;1840;48.892;15.312;2023-04-24T04:01:19;29.20;;;18.80;;
3647;SDS011;1840;48.892;15.312;2023-04-24T04:03:47;31.60;;;19.33;;
3647;SDS011;1840;48.892;15.312;2023-04-24T04:06:16;28.77;;;18.20;;
3647;SDS011;1840;48.892;15.312;2023-04-24T04:08:45;24.67;;;16.60;;
3647;SDS011;1840;48.892;15.312;2023-04-24T04:11:13;26.87;;;16.87;;
3647;SDS011;1840;48.892;15.312;2023-04-24T04:13:41;30.47;;;17.37;;
3647;SDS011;1840;48.892;15.312;2023-04-24T04:16:11;23.33;;;16.00;;
3647;SDS011;1840;48.892;15.312;2023-04-24T04:18:39;21.30;;;14.83;;
3647;SDS011;1840;48.892;15.312;2023-04-24T04:21:07;21.50;;;14.80;;
3647;SDS011;1840;48.892;15.312;2023-04-24T04:23:35;27.67;;;16.30;;
3647;SDS011;1840;48.892;15.312;2023-04-24T04:26:04;19.57;;;14.77;;
3647;SDS011;1840;48.892;15.312;2023-04-24T04:28:32;20.17;;;14.77;;
3647;SDS011;1840;48.892;15.312;2023-04-24T04:31:02;21.10;;;14.27;;
3647;SDS011;1840;48.892;15.312;2023-04-24T04:33:31;20.67;;;14.67;;
3647;SDS011;1840;48.892;15.312;2023-04-24T04:35:59;23.77;;;14.97;;
3647;SDS011;1840;48.892;15.312;2023-04-24T04:38:29;23.40;;;15.10;;
3647;SDS011;1840;48.892;15.312;2023-04-24T04:40:57;26.90;;;14.90;;
3647;SDS011;1840;48.892;15.312;2023-04-24T04:43:25;20.70;;;14.47;;
3647;SDS011;1840;48.892;15.312;2023-04-24T04:45:53;20.17;;;14.43;;
3647;SDS011;1840;48.892;15.312;2023-04-24T04:48:22;21.50;;;15.70;;
3647;SDS011;1840;48.892;15.312;2023-04-24T04:50:51;22.63;;;14.10;;
3647;SDS011;1840;48.892;15.312;2023-04-24T04:53:19;24.67;;;15.40;;
3647;SDS011;1840;48.892;15.312;2023-04-24T04:55:47;20.77;;;14.73;;
3647;SDS011;1840;48.892;15.312;2023-04-24T04:58:15;30.03;;;13.90;;
3647;SDS011;1840;48.892;15.312;2023-04-24T05:00:44;22.20;;;14.20;;
3647;SDS011;1840;48.892;15.312;2023-04-24T05:03:12;20.00;;;12.87;;
3647;SDS011;1840;48.892;15.312;2023-04-24T05:05:43;18.07;;;12.57;;
3647;SDS011;1840;48.892;15.312;2023-04-24T05:08:13;16.37;;;11.80;;
3647;SDS011;1840;48.892;15.312;2023-04-24T05:10:52;17.93;;;13.03;;
3647;SDS011;1840;48.892;15.312;2023-04-24T05:13:20;17.53;;;12.83;;
3647;SDS011;1840;48.892;15.312;2023-04-24T05:16:04;17.47;;;11.37;;
3647;SDS011;1840;48.892;15.312;2023-04-24T05:18:32;16.37;;;11.40;;
3647;SDS011;1840;48.892;15.312;2023-04-24T05:21:00;16.87;;;12.03;;
3647;SDS011;1840;48.892;15.312;2023-04-24T05:23:30;15.50;;;11.00;;
3647;SDS011;1840;48.892;15.312;2023-04-24T05:25:58;12.80;;;9.63;;
3647;SDS011;1840;48.892;15.312;2023-04-24T05:28:26;15.67;;;11.00;;
3647;SDS011;1840;48.892;15.312;2023-04-24T05:30:54;14.87;;;10.83;;
3647;SDS011;1840;48.892;15.312;2023-04-24T05:33:23;13.87;;;10.47;;
3647;SDS011;1840;48.892;15.312;2023-04-24T05:35:51;14.73;;;10.90;;
3647;SDS011;1840;48.892;15.312;2023-04-24T05:38:19;12.50;;;8.93;;
3647;SDS011;1840;48.892;15.312;2023-04-24T05:40:48;14.90;;;9.10;;
3647;SDS011;1840;48.892;15.312;2023-04-24T05:43:16;18.33;;;8.47;;
3647;SDS011;1840;48.892;15.312;2023-04-24T05:45:45;21.00;;;9.77;;
3647;SDS011;1840;48.892;15.312;2023-04-24T05:48:13;13.20;;;8.80;;
3647;SDS011;1840;48.892;15.312;2023-04-24T05:50:41;13.57;;;9.30;;
3647;SDS011;1840;48.892;15.312;2023-04-24T05:53:09;12.10;;;8.27;;
3647;SDS011;1840;48.892;15.312;2023-04-24T05:55:37;9.20;;;7.43;;
3647;SDS011;1840;48.892;15.312;2023-04-24T05:58:07;12.73;;;7.60;;
3647;SDS011;1840;48.892;15.312;2023-04-24T06:00:35;11.30;;;8.33;;
3647;SDS011;1840;48.892;15.312;2023-04-24T06:03:03;14.57;;;8.70;;
3647;SDS011;1840;48.892;15.312;2023-04-24T06:05:32;14.17;;;8.07;;
3647;SDS011;1840;48.892;15.312;2023-04-24T06:08:01;13.40;;;8.60;;
3647;SDS011;1840;48.892;15.312;2023-04-24T06:10:29;11.63;;;7.97;;
3647;SDS011;1840;48.892;15.312;2023-04-24T06:12:57;11.10;;;8.57;;
3647;SDS011;1840;48.892;15.312;2023-04-24T06:15:29;13.30;;;8.80;;
3647;SDS011;1840;48.892;15.312;2023-04-24T06:17:57;8.93;;;6.60;;
3647;SDS011;1840;48.892;15.312;2023-04-24T06:20:26;13.93;;;7.80;;
3647;SDS011;1840;48.892;15.312;2023-04-24T06:22:54;10.57;;;6.93;;
3647;SDS011;1840;48.892;15.312;2023-04-24T06:25:24;15.77;;;8.80;;
3647;SDS011;1840;48.892;15.312;2023-04-24T06:27:53;9.93;;;6.90;;
3647;SDS011;1840;48.892;15.312;2023-04-24T06:30:21;10.90;;;7.40;;
3647;SDS011;1840;48.892;15.312;2023-04-24T06:32:52;9.20;;;6.93;;
3647;SDS011;1840;48.892;15.312;2023-04-24T06:35:28;9.60;;;6.37;;
3647;SDS011;1840;48.892;15.312;2023-04-24T06:37:56;7.87;;;6.27;;
3647;SDS011;1840;48.892;15.312;2023-04-24T06:40:24;9.20;;;6.60;;
3647;SDS011;1840;48.892;15.312;2023-04-24T06:42:52;15.27;;;7.80;;
3647;SDS011;1840;48.892;15.312;2023-04-24T06:45:20;9.40;;;6.67;;
3647;SDS011;1840;48.892;15.312;2023-04-24T06:47:49;11.53;;;5.77;;
3647;SDS011;1840;48.892;15.312;2023-04-24T06:50:19;7.73;;;5.87;;
3647;SDS011;1840;48.892;15.312;2023-04-24T06:52:47;9.10;;;5.53;;
3647;SDS011;1840;48.892;15.312;2023-04-24T06:55:15;13.87;;;7.07;;
3647;SDS011;1840;48.892;15.312;2023-04-24T06:57:43;11.57;;;6.07;;
3647;SDS011;1840;48.892;15.312;2023-04-24T07:00:12;8.10;;;5.27;;
3647;SDS011;1840;48.892;15.312;2023-04-24T07:02:40;8.80;;;5.40;;
3647;SDS011;1840;48.892;15.312;2023-04-24T07:05:10;7.30;;;5.23;;
3647;SDS011;1840;48.892;15.312;2023-04-24T07:07:38;10.27;;;5.03;;
3647;SDS011;1840;48.892;15.312;2023-04-24T07:10:07;6.20;;;4.20;;
3647;SDS011;1840;48.892;15.312;2023-04-24T07:12:35;7.30;;;4.93;;
3647;SDS011;1840;48.892;15.312;2023-04-24T07:15:04;5.90;;;4.40;;
3647;SDS011;1840;48.892;15.312;2023-04-24T07:17:34;5.63;;;4.30;;
3647;SDS011;1840;48.892;15.312;2023-04-24T07:20:05;6.67;;;4.60;;
3647;SDS011;1840;48.892;15.312;2023-04-24T07:22:37;6.80;;;4.43;;
3647;SDS011;1840;48.892;15.312;2023-04-24T07:25:05;9.10;;;4.37;;
3647;SDS011;1840;48.892;15.312;2023-04-24T07:27:34;9.53;;;3.93;;
3647;SDS011;1840;48.892;15.312;2023-04-24T07:30:03;4.80;;;3.50;;
3647;SDS011;1840;48.892;15.312;2023-04-24T07:32:33;5.90;;;3.60;;
3647;SDS011;1840;48.892;15.312;2023-04-24T07:35:01;3.60;;;2.83;;
3647;SDS011;1840;48.892;15.312;2023-04-24T07:37:29;8.17;;;3.43;;
3647;SDS011;1840;48.892;15.312;2023-04-24T07:39:59;4.00;;;2.90;;
3647;SDS011;1840;48.892;15.312;2023-04-24T07:42:27;3.73;;;2.70;;
3647;SDS011;1840;48.892;15.312;2023-04-24T07:44:57;4.27;;;2.57;;
3647;SDS011;1840;48.892;15.312;2023-04-24T07:47:26;3.10;;;2.57;;
3647;SDS011;1840;48.892;15.312;2023-04-24T07:49:54;3.47;;;2.67;;
3647;SDS011;1840;48.892;15.312;2023-04-24T07:52:22;5.07;;;2.67;;
3647;SDS011;1840;48.892;15.312;2023-04-24T07:54:51;3.00;;;2.30;;
3647;SDS011;1840;48.892;15.312;2023-04-24T07:57:25;4.47;;;2.70;;
3647;SDS011;1840;48.892;15.312;2023-04-24T07:59:53;4.57;;;2.53;;
3647;SDS011;1840;48.892;15.312;2023-04-24T08:02:22;5.40;;;2.50;;
3647;SDS011;1840;48.892;15.312;2023-04-24T08:04:53;3.63;;;2.07;;
3647;SDS011;1840;48.892;15.312;2023-04-24T08:07:22;3.70;;;2.47;;
3647;SDS011;1840;48.892;15.312;2023-04-24T08:09:51;2.60;;;1.83;;
3647;SDS011;1840;48.892;15.312;2023-04-24T08:12:19;3.20;;;2.20;;
3647;SDS011;1840;48.892;15.312;2023-04-24T08:14:48;4.63;;;2.10;;
3647;SDS011;1840;48.892;15.312;2023-04-24T08:17:16;2.80;;;1.70;;
3647;SDS011;1840;48.892;15.312;2023-04-24T08:19:45;11.10;;;2.10;;
3647;SDS011;1840;48.892;15.312;2023-04-24T08:22:14;2.63;;;2.00;;
3647;SDS011;1840;48.892;15.312;2023-04-24T08:24:42;1.90;;;1.40;;
3647;SDS011;1840;48.892;15.312;2023-04-24T08:27:10;3.90;;;1.90;;
3647;SDS011;1840;48.892;15.312;2023-04-24T08:29:38;2.33;;;1.83;;
3647;SDS011;1840;48.892;15.312;2023-04-24T08:32:08;3.73;;;1.60;;
3647;SDS011;1840;48.892;15.312;2023-04-24T08:34:36;2.97;;;2.20;;
3647;SDS011;1840;48.892;15.312;2023-04-24T08:37:04;3.03;;;1.80;;
3647;SDS011;1840;48.892;15.312;2023-04-24T08:39:32;5.10;;;1.63;;
3647;SDS011;1840;48.892;15.312;2023-04-24T08:42:02;3.10;;;1.87;;
3647;SDS011;1840;48.892;15.312;2023-04-24T08:44:34;3.30;;;1.67;;
3647;SDS011;1840;48.892;15.312;2023-04-24T08:47:03;4.80;;;1.87;;
3647;SDS011;1840;48.892;15.312;2023-04-24T08:49:33;3.60;;;2.13;;
3647;SDS011;1840;48.892;15.312;2023-04-24T08:52:04;4.73;;;1.97;;
3647;SDS011;1840;48.892;15.312;2023-04-24T08:54:33;3.23;;;2.10;;
3647;SDS011;1840;48.892;15.312;2023-04-24T08:57:02;3.30;;;1.83;;
3647;SDS011;1840;48.892;15.312;2023-04-24T08:59:35;2.70;;;1.70;;
3647;SDS011;1840;48.892;15.312;2023-04-24T09:02:05;4.73;;;2.77;;
3647;SDS011;1840;48.892;15.312;2023-04-24T09:04:39;3.40;;;1.90;;
3647;SDS011;1840;48.892;15.312;2023-04-24T09:07:08;4.00;;;1.80;;
3647;SDS011;1840;48.892;15.312;2023-04-24T09:09:39;3.67;;;1.87;;
3647;SDS011;1840;48.892;15.312;2023-04-24T09:12:09;2.00;;;1.20;;
3647;SDS011;1840;48.892;15.312;2023-04-24T09:14:38;4.03;;;1.67;;
3647;SDS011;1840;48.892;15.312;2023-04-24T09:17:12;3.03;;;1.53;;
3647;SDS011;1840;48.892;15.312;2023-04-24T09:19:41;2.83;;;1.63;;
3647;SDS011;1840;48.892;15.312;2023-04-24T09:22:10;2.83;;;1.67;;
3647;SDS011;1840;48.892;15.312;2023-04-24T09:24:39;5.10;;;1.77;;
3647;SDS011;1840;48.892;15.312;2023-04-24T09:27:07;4.57;;;1.57;;
3647;SDS011;1840;48.892;15.312;2023-04-24T09:29:38;3.90;;;1.83;;
3647;SDS011;1840;48.892;15.312;2023-04-24T09:32:17;3.10;;;1.77;;
3647;SDS011;1840;48.892;15.312;2023-04-24T09:34:49;5.47;;;2.20;;
3647;SDS011;1840;48.892;15.312;2023-04-24T09:37:34;4.13;;;1.70;;
3647;SDS011;1840;48.892;15.312;2023-04-24T09:40:13;2.70;;;1.70;;
3647;SDS011;1840;48.892;15.312;2023-04-24T09:42:43;3.27;;;2.07;;
3647;SDS011;1840;48.892;15.312;2023-04-24T09:45:12;3.40;;;2.00;;
3647;SDS011;1840;48.892;15.312;2023-04-24T09:47:41;3.10;;;1.80;;
3647;SDS011;1840;48.892;15.312;2023-04-24T09:50:15;2.23;;;1.60;;
3647;SDS011;1840;48.892;15.312;2023-04-24T09:52:47;3.40;;;1.67;;
3647;SDS011;1840;48.892;15.312;2023-04-24T09:55:24;4.20;;;1.73;;
3647;SDS011;1840;48.892;15.312;2023-04-24T09:57:53;3.00;;;1.57;;
3647;SDS011;1840;48.892;15.312;2023-04-24T10:00:22;7.07;;;1.83;;
3647;SDS011;1840;48.892;15.312;2023-04-24T10:02:56;3.57;;;1.87;;
3647;SDS011;1840;48.892;15.312;2023-04-24T10:05:30;3.70;;;1.97;;
3647;SDS011;1840;48.892;15.312;2023-04-24T10:08:02;2.30;;;1.60;;
3647;SDS011;1840;48.892;15.312;2023-04-24T10:10:33;2.47;;;1.47;;
3647;SDS011;1840;48.892;15.312;2023-04-24T10:13:04;2.73;;;1.63;;
3647;SDS011;1840;48.892;15.312;2023-04-24T10:15:34;3.37;;;1.60;;
3647;SDS011;1840;48.892;15.312;2023-04-24T10:18:03;5.43;;;1.57;;
3647;SDS011;1840;48.892;15.312;2023-04-24T10:20:35;3.20;;;1.63;;
3647;SDS011;1840;48.892;15.312;2023-04-24T10:23:04;4.00;;;1.90;;
3647;SDS011;1840;48.892;15.312;2023-04-24T10:25:34;3.00;;;1.87;;
3647;SDS011;1840;48.892;15.312;2023-04-24T10:28:03;3.13;;;1.77;;
3647;SDS011;1840;48.892;15.312;2023-04-24T10:30:35;4.37;;;2.03;;
3647;SDS011;1840;48.892;15.312;2023-04-24T10:33:03;8.07;;;2.13;;
3647;SDS011;1840;48.892;15.312;2023-04-24T10:35:33;5.67;;;1.53;;
3647;SDS011;1840;48.892;15.312;2023-04-24T10:38:06;3.00;;;1.43;;
3647;SDS011;1840;48.892;15.312;2023-04-24T10:40:36;2.00;;;1.27;;
3647;SDS011;1840;48.892;15.312;2023-04-24T10:43:04;2.03;;;1.17;;
3647;SDS011;1840;48.892;15.312;2023-04-24T10:45:34;1.90;;;1.13;;
3647;SDS011;1840;48.892;15.312;2023-04-24T10:48:03;3.13;;;1.30;;
3647;SDS011;1840;48.892;15.312;2023-04-24T10:50:46;3.20;;;1.83;;
3647;SDS011;1840;48.892;15.312;2023-04-24T10:53:15;3.70;;;1.50;;
3647;SDS011;1840;48.892;15.312;2023-04-24T10:55:46;3.80;;;1.30;;
3647;SDS011;1840;48.892;15.312;2023-04-24T10:58:15;4.17;;;1.90;;
3647;SDS011;1840;48.892;15.312;2023-04-24T11:00:44;6.93;;;1.70;;
3647;SDS011;1840;48.892;15.312;2023-04-24T11:03:23;3.33;;;1.40;;
3647;SDS011;1840;48.892;15.312;2023-04-24T11:05:58;6.10;;;1.57;;
3647;SDS011;1840;48.892;15.312;2023-04-24T11:08:29;3.10;;;1.53;;
3647;SDS011;1840;48.892;15.312;2023-04-24T11:10:59;3.67;;;1.40;;
3647;SDS011;1840;48.892;15.312;2023-04-24T11:16:42;3.10;;;1.33;;
3647;SDS011;1840;48.892;15.312;2023-04-24T11:19:18;7.70;;;1.80;;
3647;SDS011;1840;48.892;15.312;2023-04-24T11:21:57;6.93;;;1.57;;
3647;SDS011;1840;48.892;15.312;2023-04-24T11:24:28;5.37;;;1.63;;
3647;SDS011;1840;48.892;15.312;2023-04-24T11:26:59;5.70;;;1.70;;
3647;SDS011;1840;48.892;15.312;2023-04-24T11:29:42;6.47;;;1.73;;
3647;SDS011;1840;48.892;15.312;2023-04-24T11:32:16;3.10;;;1.90;;
3647;SDS011;1840;48.892;15.312;2023-04-24T11:34:47;4.70;;;1.53;;
3647;SDS011;1840;48.892;15.312;2023-04-24T11:37:17;2.70;;;1.40;;
3647;SDS011;1840;48.892;15.312;2023-04-24T11:39:45;2.47;;;1.60;;
3647;SDS011;1840;48.892;15.312;2023-04-24T11:42:14;3.50;;;1.23;;
3647;SDS011;1840;48.892;15.312;2023-04-24T11:44:43;3.90;;;1.30;;
3647;SDS011;1840;48.892;15.312;2023-04-24T11:47:13;2.90;;;1.40;;
3647;SDS011;1840;48.892;15.312;2023-04-24T11:49:42;2.50;;;1.20;;
3647;SDS011;1840;48.892;15.312;2023-04-24T11:52:10;4.20;;;1.60;;
3647;SDS011;1840;48.892;15.312;2023-04-24T11:54:47;2.43;;;1.30;;
3647;SDS011;1840;48.892;15.312;2023-04-24T11:57:19;3.60;;;1.97;;
3647;SDS011;1840;48.892;15.312;2023-04-24T11:59:48;2.90;;;0.90;;
3647;SDS011;1840;48.892;15.312;2023-04-24T12:02:19;1.90;;;0.87;;
3647;SDS011;1840;48.892;15.312;2023-04-24T12:04:49;2.53;;;0.90;;
3647;SDS011;1840;48.892;15.312;2023-04-24T12:07:18;1.80;;;0.90;;
3647;SDS011;1840;48.892;15.312;2023-04-24T12:09:49;4.50;;;0.80;;
3647;SDS011;1840;48.892;15.312;2023-04-24T12:12:27;2.63;;;1.10;;
3647;SDS011;1840;48.892;15.312;2023-04-24T12:14:56;3.00;;;1.43;;
3647;SDS011;1840;48.892;15.312;2023-04-24T12:17:27;2.67;;;1.30;;
3647;SDS011;1840;48.892;15.312;2023-04-24T12:19:57;2.80;;;1.50;;
3647;SDS011;1840;48.892;15.312;2023-04-24T12:22:28;3.83;;;1.47;;
3647;SDS011;1840;48.892;15.312;2023-04-24T12:25:12;2.33;;;1.10;;
3647;SDS011;1840;48.892;15.312;2023-04-24T12:27:42;4.10;;;1.70;;
3647;SDS011;1840;48.892;15.312;2023-04-24T12:30:13;2.70;;;1.23;;
3647;SDS011;1840;48.892;15.312;2023-04-24T12:32:44;2.63;;;1.37;;
3647;SDS011;1840;48.892;15.312;2023-04-24T12:35:13;2.77;;;1.20;;
3647;SDS011;1840;48.892;15.312;2023-04-24T12:37:46;1.80;;;0.93;;
3647;SDS011;1840;48.892;15.312;2023-04-24T12:40:16;2.60;;;1.27;;
3647;SDS011;1840;48.892;15.312;2023-04-24T12:42:45;2.53;;;1.10;;
3647;SDS011;1840;48.892;15.312;2023-04-24T12:45:15;2.57;;;1.30;;
3647;SDS011;1840;48.892;15.312;2023-04-24T12:47:45;2.53;;;1.17;;
3647;SDS011;1840;48.892;15.312;2023-04-24T12:50:14;3.07;;;1.37;;
3647;SDS011;1840;48.892;15.312;2023-04-24T12:52:43;2.97;;;1.30;;
3647;SDS011;1840;48.892;15.312;2023-04-24T12:55:11;2.63;;;1.03;;
3647;SDS011;1840;48.892;15.312;2023-04-24T12:57:42;2.27;;;1.10;;
3647;SDS011;1840;48.892;15.312;2023-04-24T13:00:11;2.30;;;1.20;;
3647;SDS011;1840;48.892;15.312;2023-04-24T13:02:39;4.07;;;1.50;;
3647;SDS011;1840;48.892;15.312;2023-04-24T13:05:08;2.40;;;1.33;;
3647;SDS011;1840;48.892;15.312;2023-04-24T13:07:37;6.10;;;1.37;;
3647;SDS011;1840;48.892;15.312;2023-04-24T13:10:06;2.53;;;1.10;;
3647;SDS011;1840;48.892;15.312;2023-04-24T13:12:35;4.33;;;1.20;;
3647;SDS011;1840;48.892;15.312;2023-04-24T13:15:06;5.23;;;1.30;;
3647;SDS011;1840;48.892;15.312;2023-04-24T13:17:35;2.37;;;1.07;;
3647;SDS011;1840;48.892;15.312;2023-04-24T13:20:05;17.60;;;2.43;;
3647;SDS011;1840;48.892;15.312;2023-04-24T13:22:34;3.37;;;1.30;;
3647;SDS011;1840;48.892;15.312;2023-04-24T13:25:03;4.43;;;1.23;;
3647;SDS011;1840;48.892;15.312;2023-04-24T13:27:33;3.80;;;1.60;;
3647;SDS011;1840;48.892;15.312;2023-04-24T13:30:03;4.77;;;1.30;;
3647;SDS011;1840;48.892;15.312;2023-04-24T13:32:34;2.30;;;1.33;;
3647;SDS011;1840;48.892;15.312;2023-04-24T13:35:03;2.77;;;1.20;;
3647;SDS011;1840;48.892;15.312;2023-04-24T13:37:31;2.53;;;1.27;;
3647;SDS011;1840;48.892;15.312;2023-04-24T13:39:59;4.53;;;1.50;;
3647;SDS011;1840;48.892;15.312;2023-04-24T13:42:27;2.53;;;1.10;;
3647;SDS011;1840;48.892;15.312;2023-04-24T13:44:55;5.03;;;1.53;;
3647;SDS011;1840;48.892;15.312;2023-04-24T13:47:24;2.47;;;1.20;;
3647;SDS011;1840;48.892;15.312;2023-04-24T13:49:52;4.47;;;1.40;;
3647;SDS011;1840;48.892;15.312;2023-04-24T13:52:21;2.30;;;1.20;;
3647;SDS011;1840;48.892;15.312;2023-04-24T13:54:48;2.10;;;1.10;;
3647;SDS011;1840;48.892;15.312;2023-04-24T13:57:16;4.07;;;1.50;;
3647;SDS011;1840;48.892;15.312;2023-04-24T13:59:44;6.43;;;1.50;;
3647;SDS011;1840;48.892;15.312;2023-04-24T14:02:12;2.00;;;1.30;;
3647;SDS011;1840;48.892;15.312;2023-04-24T14:04:42;3.37;;;1.90;;
3647;SDS011;1840;48.892;15.312;2023-04-24T14:07:10;3.10;;;1.80;;
3647;SDS011;1840;48.892;15.312;2023-04-24T14:09:38;3.10;;;1.63;;
3647;SDS011;1840;48.892;15.312;2023-04-24T14:12:06;2.70;;;1.40;;
3647;SDS011;1840;48.892;15.312;2023-04-24T14:14:34;6.30;;;1.77;;
3647;SDS011;1840;48.892;15.312;2023-04-24T14:17:02;2.30;;;1.60;;
3647;SDS011;1840;48.892;15.312;2023-04-24T14:19:31;2.57;;;1.63;;
3647;SDS011;1840;48.892;15.312;2023-04-24T14:22:00;2.17;;;1.30;;
3647;SDS011;1840;48.892;15.312;2023-04-24T14:24:28;3.60;;;1.60;;
3647;SDS011;1840;48.892;15.312;2023-04-24T14:26:56;1.87;;;1.03;;
3647;SDS011;1840;48.892;15.312;2023-04-24T14:29:25;2.10;;;1.30;;
3647;SDS011;1840;48.892;15.312;2023-04-24T14:31:52;2.57;;;1.10;;
3647;SDS011;1840;48.892;15.312;2023-04-24T14:34:21;2.60;;;1.47;;
3647;SDS011;1840;48.892;15.312;2023-04-24T14:36:49;1.80;;;1.20;;
3647;SDS011;1840;48.892;15.312;2023-04-24T14:39:18;7.60;;;1.80;;
3647;SDS011;1840;48.892;15.312;2023-04-24T14:41:46;2.70;;;1.40;;
3647;SDS011;1840;48.892;15.312;2023-04-24T14:44:14;4.50;;;1.50;;
3647;SDS011;1840;48.892;15.312;2023-04-24T14:46:42;3.37;;;1.40;;
3647;SDS011;1840;48.892;15.312;2023-04-24T14:49:10;17.60;;;1.90;;
3647;SDS011;1840;48.892;15.312;2023-04-24T14:51:38;3.73;;;1.10;;
3647;SDS011;1840;48.892;15.312;2023-04-24T14:54:06;2.13;;;1.43;;
3647;SDS011;1840;48.892;15.312;2023-04-24T14:56:36;2.87;;;1.60;;
3647;SDS011;1840;48.892;15.312;2023-04-24T14:59:07;3.43;;;1.50;;
3647;SDS011;1840;48.892;15.312;2023-04-24T15:01:35;1.90;;;1.30;;
3647;SDS011;1840;48.892;15.312;2023-04-24T15:04:03;3.00;;;1.80;;
3647;SDS011;1840;48.892;15.312;2023-04-24T15:06:31;3.20;;;1.67;;